sensor_id;sensor_type;location;lat;lon;timestamp;temperature;humidity
13596;DHT22;6868;52.544;13.416;2022-09-03T00:01:35;14.90;99.90
13596;DHT22;6868;52.544;13.416;2022-09-03T00:04:04;14.90;99.90
13596;DHT22;6868;52.544;13.416;2022-09-03T00:06:37;14.80;99.90
13596;DHT22;6868;52.544;13.416;2022-09-03T00:09:08;14.80;99.90
13596;DHT22;6868;52.544;13.416;2022-09-03T00:11:39;14.80;99.90
13596;DHT22;6868;52.544;13.416;2022-09-03T00:14:12;14.80;99.90
13596;DHT22;6868;52.544;13.416;2022-09-03T00:16:42;14.80;99.90
13596;DHT22;6868;52.544;13.416;2022-09-03T00:19:10;14.80;99.90
13596;DHT22;6868;52.544;13.416;2022-09-03T00:21:38;14.70;99.90
13596;DHT22;6868;52.544;13.416;2022-09-03T00:24:07;14.70;99.90
13596;DHT22;6868;52.544;13.416;2022-09-03T00:26:36;14.60;99.90
13596;DHT22;6868;52.544;13.416;2022-09-03T00:29:05;14.60;99.90
13596;DHT22;6868;52.544;13.416;2022-09-03T00:31:35;14.60;99.90
13596;DHT22;6868;52.544;13.416;2022-09-03T00:34:04;14.60;99.90
13596;DHT22;6868;52.544;13.416;2022-09-03T00:36:34;14.60;99.90
13596;DHT22;6868;52.544;13.416;2022-09-03T00:39:08;14.60;99.90
13596;DHT22;6868;52.544;13.416;2022-09-03T00:41:35;14.50;99.90
13596;DHT22;6868;52.544;13.416;2022-09-03T00:44:13;14.50;99.90
13596;DHT22;6868;52.544;13.416;2022-09-03T00:46:48;14.50;99.90
13596;DHT22;6868;52.544;13.416;2022-09-03T00:49:22;14.40;99.90
13596;DHT22;6868;52.544;13.416;2022-09-03T00:51:53;14.40;99.90
13596;DHT22;6868;52.544;13.416;2022-09-03T01:38:42;14.40;99.90
13596;DHT22;6868;52.544;13.416;2022-09-03T01:41:14;14.00;99.90
13596;DHT22;6868;52.544;13.416;2022-09-03T01:44:01;14.00;99.90
13596;DHT22;6868;52.544;13.416;2022-09-03T01:46:35;13.90;99.90
13596;DHT22;6868;52.544;13.416;2022-09-03T01:49:05;13.90;99.90
13596;DHT22;6868;52.544;13.416;2022-09-03T01:51:36;13.90;99.90
13596;DHT22;6868;52.544;13.416;2022-09-03T01:54:15;13.90;99.90
13596;DHT22;6868;52.544;13.416;2022-09-03T01:56:50;13.90;99.90
13596;DHT22;6868;52.544;13.416;2022-09-03T01:59:25;13.90;99.90
13596;DHT22;6868;52.544;13.416;2022-09-03T02:01:55;13.90;99.90
13596;DHT22;6868;52.544;13.416;2022-09-03T02:04:24;13.90;99.90
13596;DHT22;6868;52.544;13.416;2022-09-03T02:06:53;13.80;99.90
13596;DHT22;6868;52.544;13.416;2022-09-03T02:09:23;13.80;99.90
13596;DHT22;6868;52.544;13.416;2022-09-03T02:11:52;13.70;99.90
13596;DHT22;6868;52.544;13.416;2022-09-03T02:21:43;13.70;99.90
13596;DHT22;6868;52.544;13.416;2022-09-03T02:24:12;13.70;99.90
13596;DHT22;6868;52.544;13.416;2022-09-03T02:26:40;13.60;99.90
13596;DHT22;6868;52.544;13.416;2022-09-03T02:29:07;13.60;99.90
13596;DHT22;6868;52.544;13.416;2022-09-03T02:31:34;13.60;99.90
13596;DHT22;6868;52.544;13.416;2022-09-03T02:34:00;13.60;99.90
13596;DHT22;6868;52.544;13.416;2022-09-03T02:36:28;13.50;99.90
13596;DHT22;6868;52.544;13.416;2022-09-03T02:38:56;13.50;99.90
13596;DHT22;6868;52.544;13.416;2022-09-03T02:41:23;13.50;99.90
13596;DHT22;6868;52.544;13.416;2022-09-03T02:43:55;13.40;99.90
13596;DHT22;6868;52.544;13.416;2022-09-03T02:46:25;13.40;99.90
13596;DHT22;6868;52.544;13.416;2022-09-03T02:48:53;13.50;99.90
13596;DHT22;6868;52.544;13.416;2022-09-03T04:19:52;12.90;99.90
13596;DHT22;6868;52.544;13.416;2022-09-03T04:22:19;12.90;99.90
13596;DHT22;6868;52.544;13.416;2022-09-03T04:24:46;12.90;99.90
13596;DHT22;6868;52.544;13.416;2022-09-03T04:27:12;12.90;99.90
13596;DHT22;6868;52.544;13.416;2022-09-03T05:14:06;12.80;99.90
13596;DHT22;6868;52.544;13.416;2022-09-03T05:16:36;13.20;99.90
13596;DHT22;6868;52.544;13.416;2022-09-03T05:19:03;13.10;99.90
13596;DHT22;6868;52.544;13.416;2022-09-03T05:21:32;13.10;99.90
13596;DHT22;6868;52.544;13.416;2022-09-03T05:24:00;13.00;99.90
13596;DHT22;6868;52.544;13.416;2022-09-03T05:26:28;13.10;99.90
13596;DHT22;6868;52.544;13.416;2022-09-03T05:28:56;13.20;99.90
13596;DHT22;6868;52.544;13.416;2022-09-03T05:31:25;13.30;99.90
13596;DHT22;6868;52.544;13.416;2022-09-03T05:33:52;13.40;99.90
13596;DHT22;6868;52.544;13.416;2022-09-03T05:36:22;13.50;99.90
13596;DHT22;6868;52.544;13.416;2022-09-03T05:38:50;13.90;99.90
13596;DHT22;6868;52.544;13.416;2022-09-03T05:41:18;14.10;99.90
13596;DHT22;6868;52.544;13.416;2022-09-03T05:43:46;14.30;99.90
13596;DHT22;6868;52.544;13.416;2022-09-03T05:46:16;14.50;99.90
13596;DHT22;6868;52.544;13.416;2022-09-03T05:48:44;14.50;99.90
13596;DHT22;6868;52.544;13.416;2022-09-03T05:51:11;14.40;99.90
13596;DHT22;6868;52.544;13.416;2022-09-03T05:53:40;14.40;99.90
13596;DHT22;6868;52.544;13.416;2022-09-03T05:56:08;14.50;99.90
13596;DHT22;6868;52.544;13.416;2022-09-03T05:58:36;14.40;99.90
13596;DHT22;6868;52.544;13.416;2022-09-03T06:01:09;14.20;99.90
13596;DHT22;6868;52.544;13.416;2022-09-03T06:03:37;14.00;99.90
13596;DHT22;6868;52.544;13.416;2022-09-03T06:06:05;13.80;99.90
13596;DHT22;6868;52.544;13.416;2022-09-03T06:08:32;13.80;99.90
13596;DHT22;6868;52.544;13.416;2022-09-03T06:10:59;13.70;99.90
13596;DHT22;6868;52.544;13.416;2022-09-03T06:13:29;13.70;99.90
13596;DHT22;6868;52.544;13.416;2022-09-03T06:15:56;14.00;99.90
13596;DHT22;6868;52.544;13.416;2022-09-03T06:18:25;14.50;99.90
13596;DHT22;6868;52.544;13.416;2022-09-03T06:20:53;14.90;99.90
13596;DHT22;6868;52.544;13.416;2022-09-03T06:23:21;15.50;99.90
13596;DHT22;6868;52.544;13.416;2022-09-03T06:25:57;15.90;99.90
13596;DHT22;6868;52.544;13.416;2022-09-03T06:28:25;16.10;99.90
13596;DHT22;6868;52.544;13.416;2022-09-03T06:30:52;15.90;99.90
13596;DHT22;6868;52.544;13.416;2022-09-03T06:33:18;15.30;99.90
13596;DHT22;6868;52.544;13.416;2022-09-03T06:35:45;15.50;99.90
13596;DHT22;6868;52.544;13.416;2022-09-03T07:07:47;16.10;99.90
13596;DHT22;6868;52.544;13.416;2022-09-03T23:51:43;17.50;99.90
13596;DHT22;6868;52.544;13.416;2022-09-03T23:54:17;16.70;99.90
13596;DHT22;6868;52.544;13.416;2022-09-03T23:56:54;16.80;99.90
13596;DHT22;6868;52.544;13.416;2022-09-03T23:59:25;16.70;99.90
